sensor_id;sensor_type;location;lat;lon;timestamp;temperature;humidity
36132;DHT22;22185;48.738;9.324;2022-09-01T00:00:35;15.00;99.90
36132;DHT22;22185;48.738;9.324;2022-09-01T00:02:38;15.00;99.90
36132;DHT22;22185;48.738;9.324;2022-09-01T00:04:41;15.00;99.90
36132;DHT22;22185;48.738;9.324;2022-09-01T00:06:43;15.00;99.90
36132;DHT22;22185;48.738;9.324;2022-09-01T00:08:53;14.90;99.90
36132;DHT22;22185;48.738;9.324;2022-09-01T00:10:55;15.00;99.90
36132;DHT22;22185;48.738;9.324;2022-09-01T00:12:57;15.00;99.90
36132;DHT22;22185;48.738;9.324;2022-09-01T00:14:59;14.90;99.90
36132;DHT22;22185;48.738;9.324;2022-09-01T00:17:02;14.90;99.90
36132;DHT22;22185;48.738;9.324;2022-09-01T00:19:05;14.80;99.90
36132;DHT22;22185;48.738;9.324;2022-09-01T00:21:07;14.80;99.90
36132;DHT22;22185;48.738;9.324;2022-09-01T00:23:09;14.80;99.90
36132;DHT22;22185;48.738;9.324;2022-09-01T00:25:11;14.70;99.90
36132;DHT22;22185;48.738;9.324;2022-09-01T00:27:12;14.80;99.90
36132;DHT22;22185;48.738;9.324;2022-09-01T00:29:14;14.70;99.90
36132;DHT22;22185;48.738;9.324;2022-09-01T00:31:17;14.60;99.90
36132;DHT22;22185;48.738;9.324;2022-09-01T00:33:20;14.60;99.90
36132;DHT22;22185;48.738;9.324;2022-09-01T00:35:22;14.60;99.90
36132;DHT22;22185;48.738;9.324;2022-09-01T00:37:23;14.60;99.90
36132;DHT22;22185;48.738;9.324;2022-09-01T00:39:25;14.60;99.90
36132;DHT22;22185;48.738;9.324;2022-09-01T00:41:28;14.50;99.90
36132;DHT22;22185;48.738;9.324;2022-09-01T00:45:47;14.60;99.90
36132;DHT22;22185;48.738;9.324;2022-09-01T00:47:52;14.60;99.90
36132;DHT22;22185;48.738;9.324;2022-09-01T00:49:54;14.60;99.90
36132;DHT22;22185;48.738;9.324;2022-09-01T00:51:58;14.60;99.90
36132;DHT22;22185;48.738;9.324;2022-09-01T00:54:00;14.60;99.90
36132;DHT22;22185;48.738;9.324;2022-09-01T00:56:03;14.60;99.90
36132;DHT22;22185;48.738;9.324;2022-09-01T00:58:05;14.60;99.90
36132;DHT22;22185;48.738;9.324;2022-09-01T01:00:24;14.60;99.90
36132;DHT22;22185;48.738;9.324;2022-09-01T01:02:26;14.60;99.90
36132;DHT22;22185;48.738;9.324;2022-09-01T01:04:29;14.50;99.90
36132;DHT22;22185;48.738;9.324;2022-09-01T01:06:31;14.60;99.90
36132;DHT22;22185;48.738;9.324;2022-09-01T01:08:35;14.50;99.90
36132;DHT22;22185;48.738;9.324;2022-09-01T01:10:39;14.60;99.90
36132;DHT22;22185;48.738;9.324;2022-09-01T01:12:42;14.50;99.90
36132;DHT22;22185;48.738;9.324;2022-09-01T01:14:44;14.50;99.90
36132;DHT22;22185;48.738;9.324;2022-09-01T01:16:51;14.40;99.90
36132;DHT22;22185;48.738;9.324;2022-09-01T01:18:54;14.50;99.90
36132;DHT22;22185;48.738;9.324;2022-09-01T01:21:03;14.40;99.90
36132;DHT22;22185;48.738;9.324;2022-09-01T01:23:35;14.40;99.90
36132;DHT22;22185;48.738;9.324;2022-09-01T01:25:50;14.40;99.90
36132;DHT22;22185;48.738;9.324;2022-09-01T01:28:07;14.40;99.90
36132;DHT22;22185;48.738;9.324;2022-09-01T01:30:10;14.50;99.90
36132;DHT22;22185;48.738;9.324;2022-09-01T01:32:12;14.50;99.90
36132;DHT22;22185;48.738;9.324;2022-09-01T01:34:14;14.50;99.90
36132;DHT22;22185;48.738;9.324;2022-09-01T01:38:18;14.50;99.90
36132;DHT22;22185;48.738;9.324;2022-09-01T01:40:23;14.40;99.90
36132;DHT22;22185;48.738;9.324;2022-09-01T01:42:26;14.50;99.90
36132;DHT22;22185;48.738;9.324;2022-09-01T01:44:28;14.50;99.90
36132;DHT22;22185;48.738;9.324;2022-09-01T01:46:31;14.40;99.90
36132;DHT22;22185;48.738;9.324;2022-09-01T01:48:34;14.40;99.90
36132;DHT22;22185;48.738;9.324;2022-09-01T01:50:37;14.40;99.90
36132;DHT22;22185;48.738;9.324;2022-09-01T01:52:39;14.40;99.90
36132;DHT22;22185;48.738;9.324;2022-09-01T01:54:46;14.40;99.90
36132;DHT22;22185;48.738;9.324;2022-09-01T01:56:47;14.40;99.90
36132;DHT22;22185;48.738;9.324;2022-09-01T01:58:49;14.40;99.90
36132;DHT22;22185;48.738;9.324;2022-09-01T02:00:56;14.40;99.90
36132;DHT22;22185;48.738;9.324;2022-09-01T02:02:59;14.40;99.90
36132;DHT22;22185;48.738;9.324;2022-09-01T02:05:01;14.40;99.90
36132;DHT22;22185;48.738;9.324;2022-09-01T02:07:05;14.40;99.90
36132;DHT22;22185;48.738;9.324;2022-09-01T02:09:18;14.40;99.90
36132;DHT22;22185;48.738;9.324;2022-09-01T02:11:33;14.40;99.90
36132;DHT22;22185;48.738;9.324;2022-09-01T02:13:42;14.30;99.90
36132;DHT22;22185;48.738;9.324;2022-09-01T02:16:05;14.40;99.90
36132;DHT22;22185;48.738;9.324;2022-09-01T02:18:52;14.30;99.90
36132;DHT22;22185;48.738;9.324;2022-09-01T02:20:39;14.30;99.90
36132;DHT22;22185;48.738;9.324;2022-09-01T02:22:45;14.30;99.90
36132;DHT22;22185;48.738;9.324;2022-09-01T02:24:52;14.30;99.90
36132;DHT22;22185;48.738;9.324;2022-09-01T02:27:04;14.30;99.90
36132;DHT22;22185;48.738;9.324;2022-09-01T02:29:14;14.20;99.90
36132;DHT22;22185;48.738;9.324;2022-09-01T02:31:29;14.20;99.90
36132;DHT22;22185;48.738;9.324;2022-09-01T02:33:44;14.20;99.90
36132;DHT22;22185;48.738;9.324;2022-09-01T02:36:00;14.20;99.90
36132;DHT22;22185;48.738;9.324;2022-09-01T02:38:03;14.20;99.90
36132;DHT22;22185;48.738;9.324;2022-09-01T02:40:22;14.20;99.90
36132;DHT22;22185;48.738;9.324;2022-09-01T02:42:38;14.20;99.90
36132;DHT22;22185;48.738;9.324;2022-09-01T02:45:10;14.30;99.90
36132;DHT22;22185;48.738;9.324;2022-09-01T02:47:18;14.20;99.90
36132;DHT22;22185;48.738;9.324;2022-09-01T02:49:27;14.20;99.90
36132;DHT22;22185;48.738;9.324;2022-09-01T02:51:31;14.10;99.90
36132;DHT22;22185;48.738;9.324;2022-09-01T02:53:41;14.10;99.90
36132;DHT22;22185;48.738;9.324;2022-09-01T02:56:03;14.20;99.90
36132;DHT22;22185;48.738;9.324;2022-09-01T02:58:26;14.20;99.90
36132;DHT22;22185;48.738;9.324;2022-09-01T03:00:31;14.20;99.90
36132;DHT22;22185;48.738;9.324;2022-09-01T03:02:39;14.20;99.90
36132;DHT22;22185;48.738;9.324;2022-09-01T03:04:44;14.20;99.90
36132;DHT22;22185;48.738;9.324;2022-09-01T03:06:49;14.10;99.90
36132;DHT22;22185;48.738;9.324;2022-09-01T03:08:59;14.10;99.90
36132;DHT22;22185;48.738;9.324;2022-09-01T03:11:16;14.10;99.90
36132;DHT22;22185;48.738;9.324;2022-09-01T03:13:23;14.00;99.90
36132;DHT22;22185;48.738;9.324;2022-09-01T03:15:46;14.00;99.90
36132;DHT22;22185;48.738;9.324;2022-09-01T03:17:50;14.00;99.90
36132;DHT22;22185;48.738;9.324;2022-09-01T03:19:52;13.90;99.90
36132;DHT22;22185;48.738;9.324;2022-09-01T03:21:55;13.90;99.90
36132;DHT22;22185;48.738;9.324;2022-09-01T03:24:07;13.90;99.90
36132;DHT22;22185;48.738;9.324;2022-09-01T03:26:12;13.90;99.90
36132;DHT22;22185;48.738;9.324;2022-09-01T03:28:17;13.90;99.90
36132;DHT22;22185;48.738;9.324;2022-09-01T03:30:24;13.90;99.90
36132;DHT22;22185;48.738;9.324;2022-09-01T03:32:34;13.90;99.90
36132;DHT22;22185;48.738;9.324;2022-09-01T03:34:38;13.90;99.90
36132;DHT22;22185;48.738;9.324;2022-09-01T03:36:46;13.90;99.90
36132;DHT22;22185;48.738;9.324;2022-09-01T03:39:00;13.90;99.90
36132;DHT22;22185;48.738;9.324;2022-09-01T03:41:11;13.90;99.90
36132;DHT22;22185;48.738;9.324;2022-09-01T03:43:20;13.90;99.90
36132;DHT22;22185;48.738;9.324;2022-09-01T03:45:36;13.90;99.90
36132;DHT22;22185;48.738;9.324;2022-09-01T03:47:41;13.90;99.90
36132;DHT22;22185;48.738;9.324;2022-09-01T03:49:46;13.90;99.90
36132;DHT22;22185;48.738;9.324;2022-09-01T03:51:58;13.80;99.90
36132;DHT22;22185;48.738;9.324;2022-09-01T03:54:04;13.90;99.90
36132;DHT22;22185;48.738;9.324;2022-09-01T03:56:17;13.80;99.90
36132;DHT22;22185;48.738;9.324;2022-09-01T03:58:30;13.80;99.90
36132;DHT22;22185;48.738;9.324;2022-09-01T04:00:40;13.80;99.90
36132;DHT22;22185;48.738;9.324;2022-09-01T04:03:15;13.80;99.90
36132;DHT22;22185;48.738;9.324;2022-09-01T04:05:42;13.90;99.90
36132;DHT22;22185;48.738;9.324;2022-09-01T04:07:47;13.90;99.90
36132;DHT22;22185;48.738;9.324;2022-09-01T04:09:54;13.80;99.90
36132;DHT22;22185;48.738;9.324;2022-09-01T04:12:18;13.80;99.90
36132;DHT22;22185;48.738;9.324;2022-09-01T04:14:23;13.80;99.90
36132;DHT22;22185;48.738;9.324;2022-09-01T04:16:57;13.70;99.90
36132;DHT22;22185;48.738;9.324;2022-09-01T04:19:23;13.70;99.90
36132;DHT22;22185;48.738;9.324;2022-09-01T04:21:32;13.70;99.90
36132;DHT22;22185;48.738;9.324;2022-09-01T04:23:37;13.70;99.90
36132;DHT22;22185;48.738;9.324;2022-09-01T04:25:41;13.70;99.90
36132;DHT22;22185;48.738;9.324;2022-09-01T04:27:48;13.70;99.90
36132;DHT22;22185;48.738;9.324;2022-09-01T04:30:08;13.70;99.90
36132;DHT22;22185;48.738;9.324;2022-09-01T04:32:11;13.70;99.90
36132;DHT22;22185;48.738;9.324;2022-09-01T04:34:16;13.70;99.90
36132;DHT22;22185;48.738;9.324;2022-09-01T04:36:30;13.80;99.90
36132;DHT22;22185;48.738;9.324;2022-09-01T04:38:36;13.90;99.90
36132;DHT22;22185;48.738;9.324;2022-09-01T04:40:56;14.00;99.90
36132;DHT22;22185;48.738;9.324;2022-09-01T04:43:07;14.00;99.90
36132;DHT22;22185;48.738;9.324;2022-09-01T04:45:17;14.00;99.90
36132;DHT22;22185;48.738;9.324;2022-09-01T04:47:31;14.10;99.90
36132;DHT22;22185;48.738;9.324;2022-09-01T04:49:47;14.10;99.90
36132;DHT22;22185;48.738;9.324;2022-09-01T04:51:57;14.20;99.90
36132;DHT22;22185;48.738;9.324;2022-09-01T04:54:05;14.20;99.90
36132;DHT22;22185;48.738;9.324;2022-09-01T04:56:29;14.30;99.90
36132;DHT22;22185;48.738;9.324;2022-09-01T04:58:53;14.30;99.90
36132;DHT22;22185;48.738;9.324;2022-09-01T05:01:28;14.30;99.90
36132;DHT22;22185;48.738;9.324;2022-09-01T05:03:35;14.40;99.90
36132;DHT22;22185;48.738;9.324;2022-09-01T05:05:39;14.50;99.90
36132;DHT22;22185;48.738;9.324;2022-09-01T05:07:57;14.50;99.90
36132;DHT22;22185;48.738;9.324;2022-09-01T05:09:59;14.50;99.90
36132;DHT22;22185;48.738;9.324;2022-09-01T05:12:12;14.50;99.90
36132;DHT22;22185;48.738;9.324;2022-09-01T05:14:19;14.60;99.90
36132;DHT22;22185;48.738;9.324;2022-09-01T05:16:30;14.60;99.90
36132;DHT22;22185;48.738;9.324;2022-09-01T05:18:48;14.60;99.90
36132;DHT22;22185;48.738;9.324;2022-09-01T05:21:15;14.60;99.90
36132;DHT22;22185;48.738;9.324;2022-09-01T05:23:27;14.60;99.90
36132;DHT22;22185;48.738;9.324;2022-09-01T05:25:41;14.60;99.90
36132;DHT22;22185;48.738;9.324;2022-09-01T05:28:06;14.70;99.90
36132;DHT22;22185;48.738;9.324;2022-09-01T05:30:22;14.60;99.90
36132;DHT22;22185;48.738;9.324;2022-09-01T05:32:42;14.60;99.90
36132;DHT22;22185;48.738;9.324;2022-09-01T05:34:44;14.70;99.90
36132;DHT22;22185;48.738;9.324;2022-09-01T05:36:49;14.80;99.90
36132;DHT22;22185;48.738;9.324;2022-09-01T05:38:57;14.90;99.90
36132;DHT22;22185;48.738;9.324;2022-09-01T05:41:15;14.90;99.90
36132;DHT22;22185;48.738;9.324;2022-09-01T05:43:18;15.00;99.90
36132;DHT22;22185;48.738;9.324;2022-09-01T05:45:30;15.10;99.90
36132;DHT22;22185;48.738;9.324;2022-09-01T05:48:05;15.00;99.90
36132;DHT22;22185;48.738;9.324;2022-09-01T05:50:27;15.10;99.90
36132;DHT22;22185;48.738;9.324;2022-09-01T05:52:38;15.20;99.90
36132;DHT22;22185;48.738;9.324;2022-09-01T05:54:58;15.40;99.90
36132;DHT22;22185;48.738;9.324;2022-09-01T05:57:19;15.40;99.90
36132;DHT22;22185;48.738;9.324;2022-09-01T05:59:41;15.50;99.90
36132;DHT22;22185;48.738;9.324;2022-09-01T06:02:02;15.40;99.90
36132;DHT22;22185;48.738;9.324;2022-09-01T06:04:09;15.40;99.90
36132;DHT22;22185;48.738;9.324;2022-09-01T06:06:11;15.40;99.90
36132;DHT22;22185;48.738;9.324;2022-09-01T06:08:21;15.50;99.90
36132;DHT22;22185;48.738;9.324;2022-09-01T06:10:37;15.60;99.90
36132;DHT22;22185;48.738;9.324;2022-09-01T06:12:59;15.50;99.90
36132;DHT22;22185;48.738;9.324;2022-09-01T06:15:12;15.50;99.90
36132;DHT22;22185;48.738;9.324;2022-09-01T06:17:20;15.60;99.90
36132;DHT22;22185;48.738;9.324;2022-09-01T06:19:26;15.70;99.90
36132;DHT22;22185;48.738;9.324;2022-09-01T06:21:27;15.70;99.90
36132;DHT22;22185;48.738;9.324;2022-09-01T06:23:33;15.80;99.90
36132;DHT22;22185;48.738;9.324;2022-09-01T06:25:46;15.90;99.90
36132;DHT22;22185;48.738;9.324;2022-09-01T06:28:34;16.00;99.90
36132;DHT22;22185;48.738;9.324;2022-09-01T06:30:42;16.10;99.90
36132;DHT22;22185;48.738;9.324;2022-09-01T06:32:47;16.20;99.90
36132;DHT22;22185;48.738;9.324;2022-09-01T06:34:52;16.30;99.90
36132;DHT22;22185;48.738;9.324;2022-09-01T06:37:05;16.20;99.90
36132;DHT22;22185;48.738;9.324;2022-09-01T06:39:23;16.20;99.90
36132;DHT22;22185;48.738;9.324;2022-09-01T06:41:34;16.20;99.90
36132;DHT22;22185;48.738;9.324;2022-09-01T06:43:39;16.30;99.90
36132;DHT22;22185;48.738;9.324;2022-09-01T06:45:43;16.40;99.90
36132;DHT22;22185;48.738;9.324;2022-09-01T06:47:47;16.40;99.90
36132;DHT22;22185;48.738;9.324;2022-09-01T06:49:58;16.40;99.90
36132;DHT22;22185;48.738;9.324;2022-09-01T06:52:00;16.50;99.90
36132;DHT22;22185;48.738;9.324;2022-09-01T06:54:03;16.60;99.90
36132;DHT22;22185;48.738;9.324;2022-09-01T06:56:11;16.70;99.90
36132;DHT22;22185;48.738;9.324;2022-09-01T06:58:14;16.70;99.90
36132;DHT22;22185;48.738;9.324;2022-09-01T07:00:16;16.70;99.90
36132;DHT22;22185;48.738;9.324;2022-09-01T07:02:20;16.70;99.90
36132;DHT22;22185;48.738;9.324;2022-09-01T07:04:42;16.60;99.90
36132;DHT22;22185;48.738;9.324;2022-09-01T07:06:44;16.60;99.90
36132;DHT22;22185;48.738;9.324;2022-09-01T07:09:06;16.60;99.90
36132;DHT22;22185;48.738;9.324;2022-09-01T07:11:31;16.70;99.90
36132;DHT22;22185;48.738;9.324;2022-09-01T07:13:57;16.70;99.90
36132;DHT22;22185;48.738;9.324;2022-09-01T07:16:18;16.70;99.90
36132;DHT22;22185;48.738;9.324;2022-09-01T07:18:34;16.70;99.90
36132;DHT22;22185;48.738;9.324;2022-09-01T07:20:39;16.80;99.90
36132;DHT22;22185;48.738;9.324;2022-09-01T07:23:04;16.80;99.90
36132;DHT22;22185;48.738;9.324;2022-09-01T07:25:08;16.90;99.90
36132;DHT22;22185;48.738;9.324;2022-09-01T07:27:16;16.90;99.90
36132;DHT22;22185;48.738;9.324;2022-09-01T07:29:26;17.00;99.90
36132;DHT22;22185;48.738;9.324;2022-09-01T07:31:32;17.10;99.90
36132;DHT22;22185;48.738;9.324;2022-09-01T07:33:58;17.20;99.90
36132;DHT22;22185;48.738;9.324;2022-09-01T07:36:30;17.30;99.90
36132;DHT22;22185;48.738;9.324;2022-09-01T07:39:01;17.40;99.90
36132;DHT22;22185;48.738;9.324;2022-09-01T07:41:50;17.50;99.90
36132;DHT22;22185;48.738;9.324;2022-09-01T07:44:23;17.60;99.90
36132;DHT22;22185;48.738;9.324;2022-09-01T07:46:40;17.70;99.90
36132;DHT22;22185;48.738;9.324;2022-09-01T07:48:53;17.80;99.90
36132;DHT22;22185;48.738;9.324;2022-09-01T07:51:32;17.80;99.90
36132;DHT22;22185;48.738;9.324;2022-09-01T07:53:54;17.90;99.90
36132;DHT22;22185;48.738;9.324;2022-09-01T07:56:18;17.80;99.90
36132;DHT22;22185;48.738;9.324;2022-09-01T07:58:45;17.90;99.90
36132;DHT22;22185;48.738;9.324;2022-09-01T08:01:08;18.00;99.90
36132;DHT22;22185;48.738;9.324;2022-09-01T08:03:23;18.00;99.90
36132;DHT22;22185;48.738;9.324;2022-09-01T08:05:32;18.00;99.90
36132;DHT22;22185;48.738;9.324;2022-09-01T08:07:53;18.00;99.90
36132;DHT22;22185;48.738;9.324;2022-09-01T08:12:59;18.10;99.90
36132;DHT22;22185;48.738;9.324;2022-09-01T08:21:07;18.40;99.90
36132;DHT22;22185;48.738;9.324;2022-09-01T08:23:35;18.50;99.90
36132;DHT22;22185;48.738;9.324;2022-09-01T08:25:44;18.60;99.90
36132;DHT22;22185;48.738;9.324;2022-09-01T08:27:49;18.50;99.90
36132;DHT22;22185;48.738;9.324;2022-09-01T08:30:08;18.60;99.90
36132;DHT22;22185;48.738;9.324;2022-09-01T08:32:21;18.70;99.90
36132;DHT22;22185;48.738;9.324;2022-09-01T08:34:25;18.70;99.90
36132;DHT22;22185;48.738;9.324;2022-09-01T08:37:10;18.90;99.90
36132;DHT22;22185;48.738;9.324;2022-09-01T08:39:19;19.10;99.90
36132;DHT22;22185;48.738;9.324;2022-09-01T08:46:32;19.30;99.90
36132;DHT22;22185;48.738;9.324;2022-09-01T08:48:42;19.30;99.90
36132;DHT22;22185;48.738;9.324;2022-09-01T08:51:56;19.40;99.90
36132;DHT22;22185;48.738;9.324;2022-09-01T08:53:35;19.50;99.90
36132;DHT22;22185;48.738;9.324;2022-09-01T08:55:48;19.50;99.90
36132;DHT22;22185;48.738;9.324;2022-09-01T08:57:56;19.50;99.90
36132;DHT22;22185;48.738;9.324;2022-09-01T09:00:02;19.50;99.90
36132;DHT22;22185;48.738;9.324;2022-09-01T09:04:41;19.80;99.90
36132;DHT22;22185;48.738;9.324;2022-09-01T09:06:56;19.70;99.90
36132;DHT22;22185;48.738;9.324;2022-09-01T09:09:12;19.90;99.90
36132;DHT22;22185;48.738;9.324;2022-09-01T09:16:03;19.90;99.90
36132;DHT22;22185;48.738;9.324;2022-09-01T09:20:40;19.80;99.90
36132;DHT22;22185;48.738;9.324;2022-09-01T09:22:43;19.90;99.90
36132;DHT22;22185;48.738;9.324;2022-09-01T09:25:09;20.00;99.90
36132;DHT22;22185;48.738;9.324;2022-09-01T09:27:23;20.10;99.90
36132;DHT22;22185;48.738;9.324;2022-09-01T09:29:30;20.10;99.90
36132;DHT22;22185;48.738;9.324;2022-09-01T09:31:35;20.10;99.90
36132;DHT22;22185;48.738;9.324;2022-09-01T09:33:49;20.10;99.90
36132;DHT22;22185;48.738;9.324;2022-09-01T09:36:07;20.30;99.90
36132;DHT22;22185;48.738;9.324;2022-09-01T09:38:26;20.40;99.90
36132;DHT22;22185;48.738;9.324;2022-09-01T09:40:37;20.50;99.90
36132;DHT22;22185;48.738;9.324;2022-09-01T09:43:02;20.50;99.90
36132;DHT22;22185;48.738;9.324;2022-09-01T09:49:45;20.80;99.90
36132;DHT22;22185;48.738;9.324;2022-09-01T09:54:11;20.70;99.90
36132;DHT22;22185;48.738;9.324;2022-09-01T09:58:20;20.80;99.90
36132;DHT22;22185;48.738;9.324;2022-09-01T10:00:28;20.70;99.90
36132;DHT22;22185;48.738;9.324;2022-09-01T10:04:36;20.80;99.90
36132;DHT22;22185;48.738;9.324;2022-09-01T10:06:39;20.60;99.90
36132;DHT22;22185;48.738;9.324;2022-09-01T10:08:43;20.70;99.90
36132;DHT22;22185;48.738;9.324;2022-09-01T10:10:49;20.80;99.90
36132;DHT22;22185;48.738;9.324;2022-09-01T10:12:59;21.00;99.90
36132;DHT22;22185;48.738;9.324;2022-09-01T10:15:05;21.00;99.90
36132;DHT22;22185;48.738;9.324;2022-09-01T10:17:14;21.20;99.90
36132;DHT22;22185;48.738;9.324;2022-09-01T10:19:17;21.00;99.90
36132;DHT22;22185;48.738;9.324;2022-09-01T10:21:21;21.00;99.90
36132;DHT22;22185;48.738;9.324;2022-09-01T10:23:24;21.10;99.90
36132;DHT22;22185;48.738;9.324;2022-09-01T10:25:32;21.40;99.90
36132;DHT22;22185;48.738;9.324;2022-09-01T10:27:36;21.70;99.90
36132;DHT22;22185;48.738;9.324;2022-09-01T10:29:40;21.80;99.90
36132;DHT22;22185;48.738;9.324;2022-09-01T10:31:51;21.70;99.90
36132;DHT22;22185;48.738;9.324;2022-09-01T10:34:15;21.70;99.90
36132;DHT22;22185;48.738;9.324;2022-09-01T10:36:20;21.90;99.90
36132;DHT22;22185;48.738;9.324;2022-09-01T10:38:28;21.80;99.90
36132;DHT22;22185;48.738;9.324;2022-09-01T10:42:34;22.20;99.90
36132;DHT22;22185;48.738;9.324;2022-09-01T10:44:36;22.30;99.90
36132;DHT22;22185;48.738;9.324;2022-09-01T10:46:42;22.40;99.90
36132;DHT22;22185;48.738;9.324;2022-09-01T10:48:55;22.30;99.90
36132;DHT22;22185;48.738;9.324;2022-09-01T10:55:37;22.20;99.90
36132;DHT22;22185;48.738;9.324;2022-09-01T10:59:48;22.10;99.90
36132;DHT22;22185;48.738;9.324;2022-09-01T11:06:31;22.50;99.90
36132;DHT22;22185;48.738;9.324;2022-09-01T11:08:47;22.20;99.90
36132;DHT22;22185;48.738;9.324;2022-09-01T11:10:59;22.20;99.90
36132;DHT22;22185;48.738;9.324;2022-09-01T11:13:10;22.60;99.90
36132;DHT22;22185;48.738;9.324;2022-09-01T11:21:39;24.40;99.90
36132;DHT22;22185;48.738;9.324;2022-09-01T11:23:41;26.00;99.90
36132;DHT22;22185;48.738;9.324;2022-09-01T11:25:44;25.80;99.90
36132;DHT22;22185;48.738;9.324;2022-09-01T11:29:53;25.20;99.90
36132;DHT22;22185;48.738;9.324;2022-09-01T11:31:58;25.20;99.90
36132;DHT22;22185;48.738;9.324;2022-09-01T11:34:02;24.40;99.90
36132;DHT22;22185;48.738;9.324;2022-09-01T11:36:11;24.50;99.90
36132;DHT22;22185;48.738;9.324;2022-09-01T11:38:15;24.10;99.90
36132;DHT22;22185;48.738;9.324;2022-09-01T11:40:22;23.50;99.90
36132;DHT22;22185;48.738;9.324;2022-09-01T11:42:40;24.40;99.90
36132;DHT22;22185;48.738;9.324;2022-09-01T11:44:48;25.00;99.90
36132;DHT22;22185;48.738;9.324;2022-09-01T11:46:51;27.40;99.90
36132;DHT22;22185;48.738;9.324;2022-09-01T11:48:55;29.10;99.90
36132;DHT22;22185;48.738;9.324;2022-09-01T11:50:59;29.70;99.90
36132;DHT22;22185;48.738;9.324;2022-09-01T11:53:02;31.00;99.90
36132;DHT22;22185;48.738;9.324;2022-09-01T11:55:06;31.40;99.90
36132;DHT22;22185;48.738;9.324;2022-09-01T11:59:31;30.80;99.90
36132;DHT22;22185;48.738;9.324;2022-09-01T12:07:01;29.20;99.90
36132;DHT22;22185;48.738;9.324;2022-09-01T12:09:29;26.70;99.90
36132;DHT22;22185;48.738;9.324;2022-09-01T12:11:37;25.50;99.90
36132;DHT22;22185;48.738;9.324;2022-09-01T12:14:05;24.50;99.90
36132;DHT22;22185;48.738;9.324;2022-09-01T12:16:20;23.80;99.90
36132;DHT22;22185;48.738;9.324;2022-09-01T12:18:46;23.10;99.90
36132;DHT22;22185;48.738;9.324;2022-09-01T12:21:15;23.10;99.90
36132;DHT22;22185;48.738;9.324;2022-09-01T12:23:29;22.80;99.90
36132;DHT22;22185;48.738;9.324;2022-09-01T12:25:45;22.70;99.90
36132;DHT22;22185;48.738;9.324;2022-09-01T12:27:54;22.60;99.90
36132;DHT22;22185;48.738;9.324;2022-09-01T12:30:14;22.70;99.90
36132;DHT22;22185;48.738;9.324;2022-09-01T12:32:33;22.80;99.90
36132;DHT22;22185;48.738;9.324;2022-09-01T12:34:46;22.80;99.90
36132;DHT22;22185;48.738;9.324;2022-09-01T12:37:06;23.10;99.90
36132;DHT22;22185;48.738;9.324;2022-09-01T12:39:31;23.30;99.90
36132;DHT22;22185;48.738;9.324;2022-09-01T12:46:39;26.70;99.90
36132;DHT22;22185;48.738;9.324;2022-09-01T12:49:14;28.60;99.90
36132;DHT22;22185;48.738;9.324;2022-09-01T12:51:31;30.80;99.90
36132;DHT22;22185;48.738;9.324;2022-09-01T12:53:36;30.50;99.90
36132;DHT22;22185;48.738;9.324;2022-09-01T12:55:55;30.90;99.90
36132;DHT22;22185;48.738;9.324;2022-09-01T12:58:12;31.90;99.90
36132;DHT22;22185;48.738;9.324;2022-09-01T13:03:19;31.70;99.90
36132;DHT22;22185;48.738;9.324;2022-09-01T13:07:47;31.80;99.90
36132;DHT22;22185;48.738;9.324;2022-09-01T13:10:05;32.60;99.90
36132;DHT22;22185;48.738;9.324;2022-09-01T13:14:38;31.20;99.90
36132;DHT22;22185;48.738;9.324;2022-09-01T13:17:01;30.70;99.90
36132;DHT22;22185;48.738;9.324;2022-09-01T13:19:18;30.80;99.90
36132;DHT22;22185;48.738;9.324;2022-09-01T13:21:34;30.20;99.90
36132;DHT22;22185;48.738;9.324;2022-09-01T13:23:47;28.60;99.90
36132;DHT22;22185;48.738;9.324;2022-09-01T13:25:57;28.20;99.90
36132;DHT22;22185;48.738;9.324;2022-09-01T13:28:19;29.10;99.90
36132;DHT22;22185;48.738;9.324;2022-09-01T13:30:44;28.80;99.90
36132;DHT22;22185;48.738;9.324;2022-09-01T13:33:11;29.30;99.90
36132;DHT22;22185;48.738;9.324;2022-09-01T13:35:31;28.60;99.90
36132;DHT22;22185;48.738;9.324;2022-09-01T13:37:53;27.80;99.90
36132;DHT22;22185;48.738;9.324;2022-09-01T13:40:08;27.00;99.90
36132;DHT22;22185;48.738;9.324;2022-09-01T13:42:18;26.80;99.90
36132;DHT22;22185;48.738;9.324;2022-09-01T13:44:45;27.40;99.90
36132;DHT22;22185;48.738;9.324;2022-09-01T13:46:58;30.20;99.90
36132;DHT22;22185;48.738;9.324;2022-09-01T13:49:38;32.40;99.90
36132;DHT22;22185;48.738;9.324;2022-09-01T13:52:09;33.20;99.90
36132;DHT22;22185;48.738;9.324;2022-09-01T13:54:14;31.60;99.90
36132;DHT22;22185;48.738;9.324;2022-09-01T13:56:28;29.10;99.90
36132;DHT22;22185;48.738;9.324;2022-09-01T13:58:37;28.60;99.90
36132;DHT22;22185;48.738;9.324;2022-09-01T14:00:50;31.00;99.90
36132;DHT22;22185;48.738;9.324;2022-09-01T14:03:04;32.20;99.90
36132;DHT22;22185;48.738;9.324;2022-09-01T14:08:13;33.40;99.00
36132;DHT22;22185;48.738;9.324;2022-09-01T14:10:28;33.20;99.90
36132;DHT22;22185;48.738;9.324;2022-09-01T14:13:26;32.90;98.70
36132;DHT22;22185;48.738;9.324;2022-09-01T14:15:43;32.00;99.90
36132;DHT22;22185;48.738;9.324;2022-09-01T14:17:56;31.60;99.90
36132;DHT22;22185;48.738;9.324;2022-09-01T14:23:12;31.60;99.90
36132;DHT22;22185;48.738;9.324;2022-09-01T14:25:21;32.30;96.40
36132;DHT22;22185;48.738;9.324;2022-09-01T14:27:54;31.50;98.00
36132;DHT22;22185;48.738;9.324;2022-09-01T14:30:26;30.50;99.90
36132;DHT22;22185;48.738;9.324;2022-09-01T14:32:45;30.20;99.90
36132;DHT22;22185;48.738;9.324;2022-09-01T14:35:46;30.00;99.90
36132;DHT22;22185;48.738;9.324;2022-09-01T14:40:46;29.40;99.90
36132;DHT22;22185;48.738;9.324;2022-09-01T14:43:05;29.10;99.90
36132;DHT22;22185;48.738;9.324;2022-09-01T14:45:12;29.70;99.90
36132;DHT22;22185;48.738;9.324;2022-09-01T14:47:26;30.70;99.60
36132;DHT22;22185;48.738;9.324;2022-09-01T14:49:34;32.50;98.50
36132;DHT22;22185;48.738;9.324;2022-09-01T14:52:04;33.50;98.30
36132;DHT22;22185;48.738;9.324;2022-09-01T14:54:13;34.40;95.80
36132;DHT22;22185;48.738;9.324;2022-09-01T14:56:27;34.90;95.60
36132;DHT22;22185;48.738;9.324;2022-09-01T14:58:36;35.60;90.30
36132;DHT22;22185;48.738;9.324;2022-09-01T15:00:56;34.80;92.90
36132;DHT22;22185;48.738;9.324;2022-09-01T15:03:24;36.20;95.30
36132;DHT22;22185;48.738;9.324;2022-09-01T15:05:46;35.70;90.10
36132;DHT22;22185;48.738;9.324;2022-09-01T15:07:54;36.10;92.40
36132;DHT22;22185;48.738;9.324;2022-09-01T15:09:58;37.00;90.70
36132;DHT22;22185;48.738;9.324;2022-09-01T15:12:00;36.60;82.10
36132;DHT22;22185;48.738;9.324;2022-09-01T15:14:08;36.20;82.10
36132;DHT22;22185;48.738;9.324;2022-09-01T15:16:22;36.00;87.70
36132;DHT22;22185;48.738;9.324;2022-09-01T15:18:57;36.20;81.30
36132;DHT22;22185;48.738;9.324;2022-09-01T15:21:20;36.60;83.90
36132;DHT22;22185;48.738;9.324;2022-09-01T15:23:38;36.30;78.70